sensor_id;sensor_type;location;lat;lon;timestamp;temperature;humidity
18581;DHT22;9420;50.876;7.012;2023-01-13T00:01:05;11.70;99.90
18581;DHT22;9420;50.876;7.012;2023-01-13T00:03:33;11.80;99.90
18581;DHT22;9420;50.876;7.012;2023-01-13T00:06:01;11.90;99.90
18581;DHT22;9420;50.876;7.012;2023-01-13T00:08:29;11.90;99.90
18581;DHT22;9420;50.876;7.012;2023-01-13T00:10:57;12.00;99.90
18581;DHT22;9420;50.876;7.012;2023-01-13T00:13:24;11.90;99.90
18581;DHT22;9420;50.876;7.012;2023-01-13T00:15:55;11.90;99.90
18581;DHT22;9420;50.876;7.012;2023-01-13T00:18:22;11.90;99.90
18581;DHT22;9420;50.876;7.012;2023-01-13T00:20:57;11.90;99.90
18581;DHT22;9420;50.876;7.012;2023-01-13T00:23:28;11.90;99.90
18581;DHT22;9420;50.876;7.012;2023-01-13T00:25:56;11.80;99.90
18581;DHT22;9420;50.876;7.012;2023-01-13T00:28:24;11.90;99.90
18581;DHT22;9420;50.876;7.012;2023-01-13T00:30:52;11.80;99.90
18581;DHT22;9420;50.876;7.012;2023-01-13T00:33:20;11.90;99.90
18581;DHT22;9420;50.876;7.012;2023-01-13T00:35:55;12.00;99.90
18581;DHT22;9420;50.876;7.012;2023-01-13T00:38:22;12.00;99.90
18581;DHT22;9420;50.876;7.012;2023-01-13T00:41:02;11.80;99.90
18581;DHT22;9420;50.876;7.012;2023-01-13T00:43:31;11.70;99.90
18581;DHT22;9420;50.876;7.012;2023-01-13T00:45:59;11.60;99.90
18581;DHT22;9420;50.876;7.012;2023-01-13T00:48:26;11.60;99.90
18581;DHT22;9420;50.876;7.012;2023-01-13T00:50:55;11.50;99.90
18581;DHT22;9420;50.876;7.012;2023-01-13T00:53:24;11.40;99.90
18581;DHT22;9420;50.876;7.012;2023-01-13T00:55:59;11.30;99.90
18581;DHT22;9420;50.876;7.012;2023-01-13T00:58:30;11.20;99.90
18581;DHT22;9420;50.876;7.012;2023-01-13T01:00:59;11.10;99.90
18581;DHT22;9420;50.876;7.012;2023-01-13T01:03:26;11.00;99.90
18581;DHT22;9420;50.876;7.012;2023-01-13T01:05:54;10.90;99.90
18581;DHT22;9420;50.876;7.012;2023-01-13T01:08:21;10.80;99.90
18581;DHT22;9420;50.876;7.012;2023-01-13T01:10:49;10.60;99.90
18581;DHT22;9420;50.876;7.012;2023-01-13T01:13:17;10.50;99.90
18581;DHT22;9420;50.876;7.012;2023-01-13T01:15:44;10.50;99.90
18581;DHT22;9420;50.876;7.012;2023-01-13T01:18:12;10.60;99.90
18581;DHT22;9420;50.876;7.012;2023-01-13T01:20:39;10.50;99.90
18581;DHT22;9420;50.876;7.012;2023-01-13T01:23:06;10.60;99.90
18581;DHT22;9420;50.876;7.012;2023-01-13T01:25:33;10.70;99.90
18581;DHT22;9420;50.876;7.012;2023-01-13T01:28:00;10.80;99.90
18581;DHT22;9420;50.876;7.012;2023-01-13T01:30:28;10.80;99.90
18581;DHT22;9420;50.876;7.012;2023-01-13T01:32:55;11.00;99.90
18581;DHT22;9420;50.876;7.012;2023-01-13T01:35:22;11.10;99.90
18581;DHT22;9420;50.876;7.012;2023-01-13T01:37:49;11.20;99.90
18581;DHT22;9420;50.876;7.012;2023-01-13T01:40:17;11.10;99.90
18581;DHT22;9420;50.876;7.012;2023-01-13T01:42:44;11.10;99.90
18581;DHT22;9420;50.876;7.012;2023-01-13T01:45:30;11.20;99.90
18581;DHT22;9420;50.876;7.012;2023-01-13T01:47:59;11.20;99.90
18581;DHT22;9420;50.876;7.012;2023-01-13T01:50:30;11.20;99.90
18581;DHT22;9420;50.876;7.012;2023-01-13T01:53:01;11.10;99.90
18581;DHT22;9420;50.876;7.012;2023-01-13T01:55:34;10.90;99.90
18581;DHT22;9420;50.876;7.012;2023-01-13T01:58:06;10.70;99.90
18581;DHT22;9420;50.876;7.012;2023-01-13T02:00:38;10.10;99.90
18581;DHT22;9420;50.876;7.012;2023-01-13T02:03:06;9.80;99.90
18581;DHT22;9420;50.876;7.012;2023-01-13T02:05:35;9.70;99.90
18581;DHT22;9420;50.876;7.012;2023-01-13T02:08:04;9.60;99.90
18581;DHT22;9420;50.876;7.012;2023-01-13T02:10:34;9.50;99.90
18581;DHT22;9420;50.876;7.012;2023-01-13T02:13:05;9.60;99.90
18581;DHT22;9420;50.876;7.012;2023-01-13T02:15:42;9.50;99.90
18581;DHT22;9420;50.876;7.012;2023-01-13T02:18:30;9.50;99.90
18581;DHT22;9420;50.876;7.012;2023-01-13T02:21:35;9.60;99.90
18581;DHT22;9420;50.876;7.012;2023-01-13T02:24:41;9.60;99.90
18581;DHT22;9420;50.876;7.012;2023-01-13T02:27:39;9.80;99.90
18581;DHT22;9420;50.876;7.012;2023-01-13T02:30:29;9.70;99.90
18581;DHT22;9420;50.876;7.012;2023-01-13T02:33:36;9.60;99.90
18581;DHT22;9420;50.876;7.012;2023-01-13T02:36:26;9.60;99.90
18581;DHT22;9420;50.876;7.012;2023-01-13T02:39:05;9.60;99.90
18581;DHT22;9420;50.876;7.012;2023-01-13T02:41:41;9.70;99.90
18581;DHT22;9420;50.876;7.012;2023-01-13T02:44:39;9.70;99.90
18581;DHT22;9420;50.876;7.012;2023-01-13T02:47:16;9.70;99.90
18581;DHT22;9420;50.876;7.012;2023-01-13T02:49:49;9.90;99.90
18581;DHT22;9420;50.876;7.012;2023-01-13T02:52:27;9.90;99.90
18581;DHT22;9420;50.876;7.012;2023-01-13T02:55:02;9.90;99.90
18581;DHT22;9420;50.876;7.012;2023-01-13T02:57:34;9.90;99.90
18581;DHT22;9420;50.876;7.012;2023-01-13T03:00:06;9.90;99.90
18581;DHT22;9420;50.876;7.012;2023-01-13T03:02:37;10.00;99.90
18581;DHT22;9420;50.876;7.012;2023-01-13T03:05:05;9.90;99.90
18581;DHT22;9420;50.876;7.012;2023-01-13T03:07:45;9.80;99.90
18581;DHT22;9420;50.876;7.012;2023-01-13T03:10:36;9.80;99.90
18581;DHT22;9420;50.876;7.012;2023-01-13T03:13:20;9.90;99.90
18581;DHT22;9420;50.876;7.012;2023-01-13T03:16:06;9.80;99.90
18581;DHT22;9420;50.876;7.012;2023-01-13T03:18:46;9.90;99.90
18581;DHT22;9420;50.876;7.012;2023-01-13T03:21:23;9.80;99.90
18581;DHT22;9420;50.876;7.012;2023-01-13T03:24:01;9.80;99.90
18581;DHT22;9420;50.876;7.012;2023-01-13T03:26:35;9.80;99.90
18581;DHT22;9420;50.876;7.012;2023-01-13T03:29:10;9.80;99.90
18581;DHT22;9420;50.876;7.012;2023-01-13T03:31:52;9.70;99.90
18581;DHT22;9420;50.876;7.012;2023-01-13T03:34:30;9.70;99.90
18581;DHT22;9420;50.876;7.012;2023-01-13T03:37:05;9.80;99.90
18581;DHT22;9420;50.876;7.012;2023-01-13T03:39:38;9.80;99.90
18581;DHT22;9420;50.876;7.012;2023-01-13T03:42:14;9.90;99.90
18581;DHT22;9420;50.876;7.012;2023-01-13T03:44:49;9.90;99.90
18581;DHT22;9420;50.876;7.012;2023-01-13T03:47:22;9.90;99.90
18581;DHT22;9420;50.876;7.012;2023-01-13T03:50:01;9.90;99.90
18581;DHT22;9420;50.876;7.012;2023-01-13T03:52:35;9.90;99.90
18581;DHT22;9420;50.876;7.012;2023-01-13T03:55:07;9.80;99.90
18581;DHT22;9420;50.876;7.012;2023-01-13T03:57:42;9.80;99.90
18581;DHT22;9420;50.876;7.012;2023-01-13T04:00:15;9.70;99.90
18581;DHT22;9420;50.876;7.012;2023-01-13T04:02:48;9.70;99.90
18581;DHT22;9420;50.876;7.012;2023-01-13T04:05:21;9.70;99.90
18581;DHT22;9420;50.876;7.012;2023-01-13T04:07:55;9.70;99.90
18581;DHT22;9420;50.876;7.012;2023-01-13T04:10:31;9.60;99.90
18581;DHT22;9420;50.876;7.012;2023-01-13T04:13:06;9.60;99.90
18581;DHT22;9420;50.876;7.012;2023-01-13T04:15:39;9.50;99.90
18581;DHT22;9420;50.876;7.012;2023-01-13T04:18:14;9.60;99.90
18581;DHT22;9420;50.876;7.012;2023-01-13T04:20:46;9.60;99.90
18581;DHT22;9420;50.876;7.012;2023-01-13T04:23:14;9.50;99.90
18581;DHT22;9420;50.876;7.012;2023-01-13T04:25:43;9.40;99.90
18581;DHT22;9420;50.876;7.012;2023-01-13T04:28:11;9.30;99.90
18581;DHT22;9420;50.876;7.012;2023-01-13T04:30:40;9.20;99.90
18581;DHT22;9420;50.876;7.012;2023-01-13T04:33:08;9.10;99.90
18581;DHT22;9420;50.876;7.012;2023-01-13T04:35:36;9.00;99.90
18581;DHT22;9420;50.876;7.012;2023-01-13T04:38:07;9.00;99.90
18581;DHT22;9420;50.876;7.012;2023-01-13T04:40:35;9.00;99.90
18581;DHT22;9420;50.876;7.012;2023-01-13T04:43:03;9.00;99.90
18581;DHT22;9420;50.876;7.012;2023-01-13T04:45:30;9.00;99.90
18581;DHT22;9420;50.876;7.012;2023-01-13T04:47:57;8.90;99.90
18581;DHT22;9420;50.876;7.012;2023-01-13T04:50:25;8.70;99.90
18581;DHT22;9420;50.876;7.012;2023-01-13T04:52:53;8.70;99.90
18581;DHT22;9420;50.876;7.012;2023-01-13T04:55:23;8.70;99.90
18581;DHT22;9420;50.876;7.012;2023-01-13T04:57:50;8.80;99.90
18581;DHT22;9420;50.876;7.012;2023-01-13T05:00:19;8.70;99.90
18581;DHT22;9420;50.876;7.012;2023-01-13T05:02:48;8.80;99.90
18581;DHT22;9420;50.876;7.012;2023-01-13T05:05:16;8.80;99.90
18581;DHT22;9420;50.876;7.012;2023-01-13T05:07:44;8.70;99.90
18581;DHT22;9420;50.876;7.012;2023-01-13T05:10:12;8.90;99.90
18581;DHT22;9420;50.876;7.012;2023-01-13T05:12:40;8.80;99.90
18581;DHT22;9420;50.876;7.012;2023-01-13T05:15:25;8.80;99.90
18581;DHT22;9420;50.876;7.012;2023-01-13T05:18:10;8.90;99.90
18581;DHT22;9420;50.876;7.012;2023-01-13T05:20:37;8.80;99.90
18581;DHT22;9420;50.876;7.012;2023-01-13T05:23:04;8.90;99.90
18581;DHT22;9420;50.876;7.012;2023-01-13T05:25:49;8.90;99.90
18581;DHT22;9420;50.876;7.012;2023-01-13T05:28:18;8.70;99.90
18581;DHT22;9420;50.876;7.012;2023-01-13T05:30:46;8.70;99.90
18581;DHT22;9420;50.876;7.012;2023-01-13T05:33:15;8.70;99.90
18581;DHT22;9420;50.876;7.012;2023-01-13T05:35:45;8.80;99.90
18581;DHT22;9420;50.876;7.012;2023-01-13T05:38:14;8.70;99.90
18581;DHT22;9420;50.876;7.012;2023-01-13T05:40:43;8.90;99.90
18581;DHT22;9420;50.876;7.012;2023-01-13T05:43:30;9.00;99.90
18581;DHT22;9420;50.876;7.012;2023-01-13T05:46:00;8.90;99.90
18581;DHT22;9420;50.876;7.012;2023-01-13T05:48:30;8.90;99.90
18581;DHT22;9420;50.876;7.012;2023-01-13T05:50:59;9.00;99.90
18581;DHT22;9420;50.876;7.012;2023-01-13T05:53:27;9.10;99.90
18581;DHT22;9420;50.876;7.012;2023-01-13T05:55:54;9.10;99.90
18581;DHT22;9420;50.876;7.012;2023-01-13T05:58:23;9.10;99.90
18581;DHT22;9420;50.876;7.012;2023-01-13T06:00:58;9.10;99.90
18581;DHT22;9420;50.876;7.012;2023-01-13T06:03:25;9.20;99.90
18581;DHT22;9420;50.876;7.012;2023-01-13T06:05:52;9.10;99.90
18581;DHT22;9420;50.876;7.012;2023-01-13T06:08:23;9.10;99.90
18581;DHT22;9420;50.876;7.012;2023-01-13T06:10:50;9.20;99.90
18581;DHT22;9420;50.876;7.012;2023-01-13T06:13:17;9.00;99.90
18581;DHT22;9420;50.876;7.012;2023-01-13T06:15:45;8.90;99.90
18581;DHT22;9420;50.876;7.012;2023-01-13T06:18:13;8.90;99.90
18581;DHT22;9420;50.876;7.012;2023-01-13T06:20:40;9.00;99.90
18581;DHT22;9420;50.876;7.012;2023-01-13T06:23:08;8.90;99.90
18581;DHT22;9420;50.876;7.012;2023-01-13T06:25:46;8.80;99.90
18581;DHT22;9420;50.876;7.012;2023-01-13T06:28:17;8.90;99.90
18581;DHT22;9420;50.876;7.012;2023-01-13T06:30:47;8.90;99.90
18581;DHT22;9420;50.876;7.012;2023-01-13T06:33:25;9.00;99.90
18581;DHT22;9420;50.876;7.012;2023-01-13T06:35:59;9.00;99.90
18581;DHT22;9420;50.876;7.012;2023-01-13T06:38:33;9.00;99.90
18581;DHT22;9420;50.876;7.012;2023-01-13T06:41:06;9.10;99.90
18581;DHT22;9420;50.876;7.012;2023-01-13T06:43:34;9.20;99.90
18581;DHT22;9420;50.876;7.012;2023-01-13T06:46:00;9.20;99.90
18581;DHT22;9420;50.876;7.012;2023-01-13T06:48:30;9.20;99.90
18581;DHT22;9420;50.876;7.012;2023-01-13T06:50:59;9.20;99.90
18581;DHT22;9420;50.876;7.012;2023-01-13T06:53:27;9.20;99.90
18581;DHT22;9420;50.876;7.012;2023-01-13T06:55:54;9.20;99.90
18581;DHT22;9420;50.876;7.012;2023-01-13T06:58:21;9.20;99.90
18581;DHT22;9420;50.876;7.012;2023-01-13T07:00:48;9.30;99.90
18581;DHT22;9420;50.876;7.012;2023-01-13T07:03:17;9.40;99.90
18581;DHT22;9420;50.876;7.012;2023-01-13T07:05:53;9.40;99.90
18581;DHT22;9420;50.876;7.012;2023-01-13T07:08:21;9.40;99.90
18581;DHT22;9420;50.876;7.012;2023-01-13T07:10:49;9.30;99.90
18581;DHT22;9420;50.876;7.012;2023-01-13T07:13:17;9.30;99.90
18581;DHT22;9420;50.876;7.012;2023-01-13T07:16:05;9.30;99.90
18581;DHT22;9420;50.876;7.012;2023-01-13T07:18:34;9.30;99.90
18581;DHT22;9420;50.876;7.012;2023-01-13T07:21:04;9.30;99.90
18581;DHT22;9420;50.876;7.012;2023-01-13T07:23:34;9.20;99.90
18581;DHT22;9420;50.876;7.012;2023-01-13T07:26:03;9.10;99.90
18581;DHT22;9420;50.876;7.012;2023-01-13T07:28:31;9.20;99.90
18581;DHT22;9420;50.876;7.012;2023-01-13T07:30:59;9.10;99.90
18581;DHT22;9420;50.876;7.012;2023-01-13T07:33:26;9.10;99.90
18581;DHT22;9420;50.876;7.012;2023-01-13T07:35:59;9.00;99.90
18581;DHT22;9420;50.876;7.012;2023-01-13T07:38:29;8.90;99.90
18581;DHT22;9420;50.876;7.012;2023-01-13T07:40:57;8.90;99.90
18581;DHT22;9420;50.876;7.012;2023-01-13T07:43:44;9.00;99.90
18581;DHT22;9420;50.876;7.012;2023-01-13T07:46:10;8.90;99.90
18581;DHT22;9420;50.876;7.012;2023-01-13T07:48:37;8.70;99.90
18581;DHT22;9420;50.876;7.012;2023-01-13T07:51:06;8.50;99.90
18581;DHT22;9420;50.876;7.012;2023-01-13T07:53:36;8.50;99.90
18581;DHT22;9420;50.876;7.012;2023-01-13T07:56:05;8.50;99.90
18581;DHT22;9420;50.876;7.012;2023-01-13T07:58:34;8.50;99.90
18581;DHT22;9420;50.876;7.012;2023-01-13T08:01:07;8.50;99.90
18581;DHT22;9420;50.876;7.012;2023-01-13T08:03:34;8.40;99.90
18581;DHT22;9420;50.876;7.012;2023-01-13T08:06:02;8.30;99.90
18581;DHT22;9420;50.876;7.012;2023-01-13T08:08:29;8.30;99.90
18581;DHT22;9420;50.876;7.012;2023-01-13T08:10:59;8.40;99.90
18581;DHT22;9420;50.876;7.012;2023-01-13T08:13:27;8.50;99.90
18581;DHT22;9420;50.876;7.012;2023-01-13T08:15:59;8.50;99.90
18581;DHT22;9420;50.876;7.012;2023-01-13T08:18:29;8.50;99.90
18581;DHT22;9420;50.876;7.012;2023-01-13T08:21:00;8.50;99.90
18581;DHT22;9420;50.876;7.012;2023-01-13T08:23:29;8.50;99.90
18581;DHT22;9420;50.876;7.012;2023-01-13T08:26:00;8.50;99.90
18581;DHT22;9420;50.876;7.012;2023-01-13T08:28:29;8.60;99.90
18581;DHT22;9420;50.876;7.012;2023-01-13T08:30:58;8.60;99.90
18581;DHT22;9420;50.876;7.012;2023-01-13T08:33:26;8.50;99.90
18581;DHT22;9420;50.876;7.012;2023-01-13T08:35:53;8.50;99.90
18581;DHT22;9420;50.876;7.012;2023-01-13T08:38:22;8.50;99.90
18581;DHT22;9420;50.876;7.012;2023-01-13T08:40:49;8.60;99.90
18581;DHT22;9420;50.876;7.012;2023-01-13T08:43:18;8.60;99.90
18581;DHT22;9420;50.876;7.012;2023-01-13T08:45:51;8.60;99.90
18581;DHT22;9420;50.876;7.012;2023-01-13T08:48:21;8.80;99.90
18581;DHT22;9420;50.876;7.012;2023-01-13T08:50:48;8.90;99.90
18581;DHT22;9420;50.876;7.012;2023-01-13T08:53:15;8.90;99.90
18581;DHT22;9420;50.876;7.012;2023-01-13T08:55:42;9.00;99.90
18581;DHT22;9420;50.876;7.012;2023-01-13T08:58:10;9.20;99.90
18581;DHT22;9420;50.876;7.012;2023-01-13T09:00:38;9.20;99.90
18581;DHT22;9420;50.876;7.012;2023-01-13T09:03:05;9.30;99.90
18581;DHT22;9420;50.876;7.012;2023-01-13T09:05:34;9.30;99.90
18581;DHT22;9420;50.876;7.012;2023-01-13T09:08:01;9.20;99.90
18581;DHT22;9420;50.876;7.012;2023-01-13T09:10:28;9.20;99.90
18581;DHT22;9420;50.876;7.012;2023-01-13T09:12:55;9.30;99.90
18581;DHT22;9420;50.876;7.012;2023-01-13T09:15:38;9.30;99.90
18581;DHT22;9420;50.876;7.012;2023-01-13T09:18:06;9.30;99.90
18581;DHT22;9420;50.876;7.012;2023-01-13T09:20:33;9.40;99.90
18581;DHT22;9420;50.876;7.012;2023-01-13T09:23:00;9.60;99.90
18581;DHT22;9420;50.876;7.012;2023-01-13T09:25:27;9.60;99.90
18581;DHT22;9420;50.876;7.012;2023-01-13T09:27:55;9.60;99.90
18581;DHT22;9420;50.876;7.012;2023-01-13T09:30:23;9.70;99.90
18581;DHT22;9420;50.876;7.012;2023-01-13T09:32:52;9.80;99.90
18581;DHT22;9420;50.876;7.012;2023-01-13T09:35:42;9.90;99.90
18581;DHT22;9420;50.876;7.012;2023-01-13T09:38:08;9.90;99.90
18581;DHT22;9420;50.876;7.012;2023-01-13T09:40:37;9.90;99.90
18581;DHT22;9420;50.876;7.012;2023-01-13T09:43:16;9.80;99.90
18581;DHT22;9420;50.876;7.012;2023-01-13T09:46:06;9.90;99.90
18581;DHT22;9420;50.876;7.012;2023-01-13T09:49:02;10.00;99.90
18581;DHT22;9420;50.876;7.012;2023-01-13T09:51:36;10.00;99.90
18581;DHT22;9420;50.876;7.012;2023-01-13T09:54:14;10.00;99.90
18581;DHT22;9420;50.876;7.012;2023-01-13T09:56:48;10.00;99.90
18581;DHT22;9420;50.876;7.012;2023-01-13T09:59:17;10.00;99.90
18581;DHT22;9420;50.876;7.012;2023-01-13T10:01:53;10.00;99.90
18581;DHT22;9420;50.876;7.012;2023-01-13T10:04:25;10.00;99.90
18581;DHT22;9420;50.876;7.012;2023-01-13T10:06:57;10.10;99.90
18581;DHT22;9420;50.876;7.012;2023-01-13T10:09:32;10.30;99.90
18581;DHT22;9420;50.876;7.012;2023-01-13T10:12:10;10.30;99.90
18581;DHT22;9420;50.876;7.012;2023-01-13T10:14:59;10.20;99.90
18581;DHT22;9420;50.876;7.012;2023-01-13T10:17:30;10.20;99.90
18581;DHT22;9420;50.876;7.012;2023-01-13T10:20:16;10.30;99.90
18581;DHT22;9420;50.876;7.012;2023-01-13T10:22:55;10.30;99.90
18581;DHT22;9420;50.876;7.012;2023-01-13T10:25:40;10.20;99.90
18581;DHT22;9420;50.876;7.012;2023-01-13T10:28:16;10.20;99.90
18581;DHT22;9420;50.876;7.012;2023-01-13T10:30:45;10.30;99.90
18581;DHT22;9420;50.876;7.012;2023-01-13T10:33:15;10.30;99.90
18581;DHT22;9420;50.876;7.012;2023-01-13T10:35:50;10.30;99.90
18581;DHT22;9420;50.876;7.012;2023-01-13T10:38:26;10.30;99.90
18581;DHT22;9420;50.876;7.012;2023-01-13T10:40:57;10.30;99.90
18581;DHT22;9420;50.876;7.012;2023-01-13T10:43:26;10.30;99.90
18581;DHT22;9420;50.876;7.012;2023-01-13T10:45:59;10.40;99.90
18581;DHT22;9420;50.876;7.012;2023-01-13T10:48:37;10.40;99.90
18581;DHT22;9420;50.876;7.012;2023-01-13T10:51:18;10.50;99.90
18581;DHT22;9420;50.876;7.012;2023-01-13T10:53:57;10.60;99.90
18581;DHT22;9420;50.876;7.012;2023-01-13T10:56:28;10.50;99.90
18581;DHT22;9420;50.876;7.012;2023-01-13T10:59:12;10.50;99.90
18581;DHT22;9420;50.876;7.012;2023-01-13T11:01:42;10.50;99.90
18581;DHT22;9420;50.876;7.012;2023-01-13T11:04:31;10.40;99.90
18581;DHT22;9420;50.876;7.012;2023-01-13T11:07:03;10.40;99.90
18581;DHT22;9420;50.876;7.012;2023-01-13T11:09:40;10.40;99.90
18581;DHT22;9420;50.876;7.012;2023-01-13T11:12:29;10.40;99.90
18581;DHT22;9420;50.876;7.012;2023-01-13T11:14:58;10.40;99.90
18581;DHT22;9420;50.876;7.012;2023-01-13T11:17:33;10.40;99.90
18581;DHT22;9420;50.876;7.012;2023-01-13T11:20:18;10.40;99.90
18581;DHT22;9420;50.876;7.012;2023-01-13T11:22:57;10.50;99.90
18581;DHT22;9420;50.876;7.012;2023-01-13T11:25:31;10.40;99.90
18581;DHT22;9420;50.876;7.012;2023-01-13T11:28:18;10.40;99.90
18581;DHT22;9420;50.876;7.012;2023-01-13T11:31:06;10.50;99.90
18581;DHT22;9420;50.876;7.012;2023-01-13T11:33:44;10.50;99.90
18581;DHT22;9420;50.876;7.012;2023-01-13T11:36:17;10.50;99.90
18581;DHT22;9420;50.876;7.012;2023-01-13T11:38:51;10.50;99.90
18581;DHT22;9420;50.876;7.012;2023-01-13T11:41:30;10.50;99.90
18581;DHT22;9420;50.876;7.012;2023-01-13T11:44:12;10.40;99.90
18581;DHT22;9420;50.876;7.012;2023-01-13T11:46:50;10.50;99.90
18581;DHT22;9420;50.876;7.012;2023-01-13T11:49:24;10.70;99.90
18581;DHT22;9420;50.876;7.012;2023-01-13T11:51:58;10.70;99.90
18581;DHT22;9420;50.876;7.012;2023-01-13T11:55:04;10.80;99.90
18581;DHT22;9420;50.876;7.012;2023-01-13T11:58:05;10.90;99.90
18581;DHT22;9420;50.876;7.012;2023-01-13T12:01:12;11.20;99.90
18581;DHT22;9420;50.876;7.012;2023-01-13T12:03:49;11.30;99.90
18581;DHT22;9420;50.876;7.012;2023-01-13T12:06:31;11.40;99.90
18581;DHT22;9420;50.876;7.012;2023-01-13T12:09:17;11.00;99.90
18581;DHT22;9420;50.876;7.012;2023-01-13T12:12:06;10.90;99.90
18581;DHT22;9420;50.876;7.012;2023-01-13T12:15:00;11.00;99.90
18581;DHT22;9420;50.876;7.012;2023-01-13T12:17:56;10.80;99.90
18581;DHT22;9420;50.876;7.012;2023-01-13T12:20:44;10.60;99.90
18581;DHT22;9420;50.876;7.012;2023-01-13T12:23:23;10.40;99.90
18581;DHT22;9420;50.876;7.012;2023-01-13T12:25:58;10.30;99.90
18581;DHT22;9420;50.876;7.012;2023-01-13T12:28:42;10.30;99.90
18581;DHT22;9420;50.876;7.012;2023-01-13T12:31:15;10.10;99.90
18581;DHT22;9420;50.876;7.012;2023-01-13T12:33:54;9.90;99.90
18581;DHT22;9420;50.876;7.012;2023-01-13T12:36:33;9.80;99.90
18581;DHT22;9420;50.876;7.012;2023-01-13T12:39:17;9.80;99.90
18581;DHT22;9420;50.876;7.012;2023-01-13T12:41:59;9.70;99.90
18581;DHT22;9420;50.876;7.012;2023-01-13T12:45:21;9.70;99.90
18581;DHT22;9420;50.876;7.012;2023-01-13T12:47:51;9.70;99.90
18581;DHT22;9420;50.876;7.012;2023-01-13T12:50:41;9.80;99.90
18581;DHT22;9420;50.876;7.012;2023-01-13T12:53:28;9.80;99.90
18581;DHT22;9420;50.876;7.012;2023-01-13T12:56:28;9.70;99.90
18581;DHT22;9420;50.876;7.012;2023-01-13T13:02:34;9.70;99.90
18581;DHT22;9420;50.876;7.012;2023-01-13T13:05:38;9.70;99.90
18581;DHT22;9420;50.876;7.012;2023-01-13T13:08:39;9.80;99.90
18581;DHT22;9420;50.876;7.012;2023-01-13T13:11:41;9.90;99.90
18581;DHT22;9420;50.876;7.012;2023-01-13T13:14:59;9.90;99.90
18581;DHT22;9420;50.876;7.012;2023-01-13T13:18:00;9.80;99.90
18581;DHT22;9420;50.876;7.012;2023-01-13T13:20:55;9.70;99.90
18581;DHT22;9420;50.876;7.012;2023-01-13T13:26:37;9.10;99.90
18581;DHT22;9420;50.876;7.012;2023-01-13T13:32:51;8.60;99.90
18581;DHT22;9420;50.876;7.012;2023-01-13T13:35:37;8.50;99.90
18581;DHT22;9420;50.876;7.012;2023-01-13T13:41:43;8.30;99.90
18581;DHT22;9420;50.876;7.012;2023-01-13T13:44:34;8.30;99.90
18581;DHT22;9420;50.876;7.012;2023-01-13T13:47:22;8.20;99.90
18581;DHT22;9420;50.876;7.012;2023-01-13T13:49:51;8.10;99.90
18581;DHT22;9420;50.876;7.012;2023-01-13T13:52:22;8.10;99.90
18581;DHT22;9420;50.876;7.012;2023-01-13T13:54:57;8.00;99.90
18581;DHT22;9420;50.876;7.012;2023-01-13T13:57:37;8.00;99.90
18581;DHT22;9420;50.876;7.012;2023-01-13T14:00:16;8.00;99.90
18581;DHT22;9420;50.876;7.012;2023-01-13T14:02:48;8.00;99.90
18581;DHT22;9420;50.876;7.012;2023-01-13T14:05:21;8.00;99.90
18581;DHT22;9420;50.876;7.012;2023-01-13T14:07:51;8.10;99.90
18581;DHT22;9420;50.876;7.012;2023-01-13T14:10:33;8.10;99.90
18581;DHT22;9420;50.876;7.012;2023-01-13T14:13:13;8.30;99.90
18581;DHT22;9420;50.876;7.012;2023-01-13T14:15:44;8.40;99.90
18581;DHT22;9420;50.876;7.012;2023-01-13T14:18:14;8.40;99.90
18581;DHT22;9420;50.876;7.012;2023-01-13T14:20:51;8.50;99.90
18581;DHT22;9420;50.876;7.012;2023-01-13T14:23:25;8.50;99.90
18581;DHT22;9420;50.876;7.012;2023-01-13T14:25:54;8.50;99.90
18581;DHT22;9420;50.876;7.012;2023-01-13T14:28:24;8.50;99.90
18581;DHT22;9420;50.876;7.012;2023-01-13T14:30:57;8.50;99.90
18581;DHT22;9420;50.876;7.012;2023-01-13T14:33:31;8.40;99.90
18581;DHT22;9420;50.876;7.012;2023-01-13T14:36:06;8.40;99.90
18581;DHT22;9420;50.876;7.012;2023-01-13T14:39:25;8.40;99.90
18581;DHT22;9420;50.876;7.012;2023-01-13T14:41:59;8.50;99.90
18581;DHT22;9420;50.876;7.012;2023-01-13T14:44:28;8.50;99.90
18581;DHT22;9420;50.876;7.012;2023-01-13T14:46:59;8.50;99.90
18581;DHT22;9420;50.876;7.012;2023-01-13T14:49:31;8.50;99.90
18581;DHT22;9420;50.876;7.012;2023-01-13T14:52:12;8.40;99.90
18581;DHT22;9420;50.876;7.012;2023-01-13T14:54:44;8.40;99.90
18581;DHT22;9420;50.876;7.012;2023-01-13T14:57:24;8.40;99.90
18581;DHT22;9420;50.876;7.012;2023-01-13T14:59:59;8.40;99.90
18581;DHT22;9420;50.876;7.012;2023-01-13T15:02:38;8.40;99.90
18581;DHT22;9420;50.876;7.012;2023-01-13T15:05:22;8.40;99.90
18581;DHT22;9420;50.876;7.012;2023-01-13T15:07:58;8.40;99.90
18581;DHT22;9420;50.876;7.012;2023-01-13T15:10:29;8.40;99.90
18581;DHT22;9420;50.876;7.012;2023-01-13T15:13:00;8.50;99.90
18581;DHT22;9420;50.876;7.012;2023-01-13T15:15:32;8.60;99.90
18581;DHT22;9420;50.876;7.012;2023-01-13T15:18:01;8.70;99.90
18581;DHT22;9420;50.876;7.012;2023-01-13T15:20:38;8.70;99.90
18581;DHT22;9420;50.876;7.012;2023-01-13T15:23:08;8.70;99.90
18581;DHT22;9420;50.876;7.012;2023-01-13T15:25:37;8.70;99.90
18581;DHT22;9420;50.876;7.012;2023-01-13T15:28:09;8.70;99.90
18581;DHT22;9420;50.876;7.012;2023-01-13T15:30:43;8.70;99.90
18581;DHT22;9420;50.876;7.012;2023-01-13T15:33:10;8.70;99.90
18581;DHT22;9420;50.876;7.012;2023-01-13T15:35:41;8.70;99.90
18581;DHT22;9420;50.876;7.012;2023-01-13T15:38:13;8.60;99.90
18581;DHT22;9420;50.876;7.012;2023-01-13T15:40:42;8.60;99.90
18581;DHT22;9420;50.876;7.012;2023-01-13T15:43:12;8.60;99.90
18581;DHT22;9420;50.876;7.012;2023-01-13T15:45:57;8.60;99.90
18581;DHT22;9420;50.876;7.012;2023-01-13T15:48:42;8.60;99.90
18581;DHT22;9420;50.876;7.012;2023-01-13T15:51:10;8.60;99.90
18581;DHT22;9420;50.876;7.012;2023-01-13T15:53:40;8.60;99.90
18581;DHT22;9420;50.876;7.012;2023-01-13T15:56:12;8.60;99.90
18581;DHT22;9420;50.876;7.012;2023-01-13T15:58:45;8.70;99.90
18581;DHT22;9420;50.876;7.012;2023-01-13T16:01:12;8.60;99.90
18581;DHT22;9420;50.876;7.012;2023-01-13T16:03:39;8.60;99.90
18581;DHT22;9420;50.876;7.012;2023-01-13T16:06:14;8.60;99.90
18581;DHT22;9420;50.876;7.012;2023-01-13T16:08:45;8.50;99.90
18581;DHT22;9420;50.876;7.012;2023-01-13T16:11:12;8.50;99.90
18581;DHT22;9420;50.876;7.012;2023-01-13T16:13:39;8.40;99.90
18581;DHT22;9420;50.876;7.012;2023-01-13T16:16:18;8.30;99.90
18581;DHT22;9420;50.876;7.012;2023-01-13T16:18:48;8.30;99.90
18581;DHT22;9420;50.876;7.012;2023-01-13T16:21:16;8.20;99.90
18581;DHT22;9420;50.876;7.012;2023-01-13T16:23:47;8.30;99.90
18581;DHT22;9420;50.876;7.012;2023-01-13T16:26:19;8.30;99.90
18581;DHT22;9420;50.876;7.012;2023-01-13T16:28:48;8.30;99.90
18581;DHT22;9420;50.876;7.012;2023-01-13T16:31:20;8.30;99.90
18581;DHT22;9420;50.876;7.012;2023-01-13T16:33:49;8.30;99.90
18581;DHT22;9420;50.876;7.012;2023-01-13T16:36:18;8.40;99.90
18581;DHT22;9420;50.876;7.012;2023-01-13T16:38:49;8.50;99.90
18581;DHT22;9420;50.876;7.012;2023-01-13T16:41:17;8.50;99.90
18581;DHT22;9420;50.876;7.012;2023-01-13T16:43:45;8.50;99.90
18581;DHT22;9420;50.876;7.012;2023-01-13T16:46:19;8.60;99.90
18581;DHT22;9420;50.876;7.012;2023-01-13T16:48:49;8.60;99.90
18581;DHT22;9420;50.876;7.012;2023-01-13T16:51:20;8.60;99.90
18581;DHT22;9420;50.876;7.012;2023-01-13T16:53:50;8.60;99.90
18581;DHT22;9420;50.876;7.012;2023-01-13T16:56:26;8.50;99.90